createdAt,value
2022-10-27T00:00:42.962Z,14.00
2022-10-27T00:03:15.088Z,14.00
2022-10-27T00:05:42.990Z,14.10
2022-10-27T00:08:13.785Z,14.10
2022-10-27T00:10:42.401Z,14.00
2022-10-27T00:13:09.084Z,14.00
2022-10-27T00:15:35.712Z,13.90
2022-10-27T00:18:06.834Z,13.90
2022-10-27T00:20:33.417Z,13.90
2022-10-27T00:23:00.010Z,13.90
2022-10-27T00:25:26.582Z,13.80
2022-10-27T00:27:53.175Z,13.90
2022-10-27T00:30:19.745Z,13.80
2022-10-27T00:32:46.346Z,13.80
2022-10-27T00:35:12.975Z,13.80
2022-10-27T00:37:39.616Z,13.90
2022-10-27T00:40:06.816Z,13.90
2022-10-27T00:42:33.374Z,13.90
2022-10-27T00:45:01.056Z,13.90
2022-10-27T00:47:35.980Z,13.90
2022-10-27T00:50:08.042Z,13.90
2022-10-27T00:52:36.642Z,14.00
2022-10-27T00:55:08.296Z,14.00
2022-10-27T00:57:35.515Z,14.00
2022-10-27T01:00:05.439Z,14.00
2022-10-27T01:02:34.525Z,14.00
2022-10-27T01:05:10.844Z,14.10
2022-10-27T01:07:38.739Z,14.10
2022-10-27T01:10:05.867Z,14.10
2022-10-27T01:12:32.607Z,14.10
2022-10-27T01:14:59.465Z,14.20
2022-10-27T01:17:34.623Z,14.20
2022-10-27T01:20:35.424Z,14.20
2022-10-27T01:23:18.719Z,14.20
2022-10-27T01:26:09.522Z,14.20
2022-10-27T01:29:06.076Z,14.20
2022-10-27T01:31:45.794Z,14.10
2022-10-27T01:34:13.457Z,14.10
2022-10-27T01:36:48.682Z,14.10
2022-10-27T01:39:24.172Z,14.10
2022-10-27T01:41:56.273Z,14.10
2022-10-27T01:44:28.566Z,14.10
2022-10-27T01:46:57.123Z,14.00
2022-10-27T01:49:23.992Z,14.00
2022-10-27T01:51:51.171Z,14.10
2022-10-27T01:54:20.170Z,14.00
2022-10-27T01:57:12.141Z,14.00
2022-10-27T01:59:54.288Z,14.00
2022-10-27T02:02:35.422Z,14.00
2022-10-27T02:05:08.150Z,14.00
2022-10-27T02:07:52.611Z,14.00
2022-10-27T02:10:27.917Z,14.00
2022-10-27T02:12:56.609Z,13.90
2022-10-27T02:15:29.546Z,14.00
2022-10-27T02:18:08.164Z,14.00
2022-10-27T02:20:39.298Z,14.00
2022-10-27T02:23:08.759Z,14.00
2022-10-27T02:25:44.734Z,14.00
2022-10-27T02:28:14.316Z,14.10
2022-10-27T02:30:42.272Z,14.10
2022-10-27T02:33:09.610Z,14.10
2022-10-27T02:35:36.628Z,14.10
2022-10-27T02:38:04.301Z,14.00
2022-10-27T02:40:31.101Z,14.00
2022-10-27T02:42:57.737Z,13.90
2022-10-27T02:45:24.378Z,13.80
2022-10-27T02:47:50.959Z,13.80
2022-10-27T02:50:17.545Z,13.80
2022-10-27T02:52:44.260Z,13.70
2022-10-27T02:55:11.426Z,13.70
2022-10-27T02:57:38.111Z,13.60
2022-10-27T03:00:05.995Z,13.60
2022-10-27T03:02:32.670Z,13.50
2022-10-27T03:04:59.305Z,13.40
2022-10-27T03:07:25.927Z,13.40
2022-10-27T03:09:52.508Z,13.50
2022-10-27T03:12:19.126Z,13.40
2022-10-27T03:14:45.736Z,13.40
2022-10-27T03:17:12.435Z,13.40
2022-10-27T03:19:39.024Z,13.30
2022-10-27T03:22:05.603Z,13.40
2022-10-27T03:24:32.256Z,13.30
2022-10-27T03:26:59.467Z,13.30
2022-10-27T03:29:26.981Z,13.30
2022-10-27T03:31:53.551Z,13.30
2022-10-27T03:34:21.095Z,13.30
2022-10-27T03:36:48.127Z,13.30
2022-10-27T03:39:14.769Z,13.10
2022-10-27T03:41:41.453Z,13.20
2022-10-27T03:44:08.037Z,13.20
2022-10-27T03:46:34.670Z,13.20
2022-10-27T03:49:01.332Z,13.20
2022-10-27T03:51:28.904Z,13.20
2022-10-27T03:53:57.057Z,13.10
2022-10-27T03:56:23.695Z,13.10
2022-10-27T03:58:50.264Z,13.10
2022-10-27T04:01:17.042Z,13.10
2022-10-27T04:03:43.786Z,13.10
2022-10-27T04:06:10.380Z,13.10
2022-10-27T04:08:37.039Z,13.10
2022-10-27T04:11:03.685Z,13.10
2022-10-27T04:13:30.950Z,13.10
2022-10-27T04:16:01.219Z,13.10
2022-10-27T04:18:27.827Z,13.00
2022-10-27T04:20:54.448Z,13.10
2022-10-27T04:23:21.026Z,13.10
2022-10-27T04:25:47.605Z,13.10
2022-10-27T04:28:15.295Z,13.20
2022-10-27T04:30:42.010Z,13.20
2022-10-27T04:33:09.106Z,13.10
2022-10-27T04:35:35.848Z,13.10
2022-10-27T04:38:02.541Z,13.10
2022-10-27T04:40:29.176Z,13.10
2022-10-27T04:42:55.892Z,13.00
2022-10-27T04:45:22.656Z,13.00
2022-10-27T04:47:49.489Z,13.00
2022-10-27T04:50:17.249Z,12.90
2022-10-27T04:52:55.463Z,12.80
2022-10-27T04:55:22.227Z,12.90
2022-10-27T04:57:48.856Z,12.80
2022-10-27T05:00:15.755Z,12.80
2022-10-27T05:02:42.415Z,12.90
2022-10-27T05:05:09.145Z,12.80
2022-10-27T05:07:35.778Z,12.80
2022-10-27T05:10:02.637Z,12.80
2022-10-27T05:12:29.217Z,12.80
2022-10-27T05:14:55.837Z,12.90
2022-10-27T05:19:53.939Z,12.80
2022-10-27T05:22:20.548Z,12.80
2022-10-27T05:24:47.131Z,12.90
2022-10-27T05:27:13.706Z,12.90
2022-10-27T05:29:40.282Z,12.90
2022-10-27T05:32:06.874Z,12.90
2022-10-27T05:34:33.465Z,12.90
2022-10-27T05:37:00.062Z,13.00
2022-10-27T05:39:26.669Z,13.00
2022-10-27T05:41:53.232Z,13.10
2022-10-27T05:44:19.915Z,13.10
2022-10-27T05:46:46.480Z,13.10
2022-10-27T05:49:13.038Z,13.10
2022-10-27T05:51:39.650Z,13.10
2022-10-27T05:54:06.326Z,13.10
2022-10-27T05:56:32.902Z,13.10
2022-10-27T05:58:59.548Z,13.10
2022-10-27T06:01:26.305Z,13.20
2022-10-27T06:03:53.007Z,13.20
2022-10-27T06:06:19.569Z,13.20
2022-10-27T06:08:46.200Z,13.10
2022-10-27T06:11:12.829Z,13.10
2022-10-27T06:13:39.445Z,13.10
2022-10-27T06:16:08.246Z,13.00
2022-10-27T06:18:37.450Z,13.10
2022-10-27T06:21:04.064Z,13.10
2022-10-27T06:23:30.634Z,13.10
2022-10-27T06:25:57.280Z,13.10
2022-10-27T06:28:23.929Z,13.10
2022-10-27T06:30:50.667Z,13.10
2022-10-27T06:33:17.235Z,13.00
2022-10-27T06:35:45.803Z,13.00
2022-10-27T06:38:16.646Z,13.00
2022-10-27T06:43:12.558Z,13.10
2022-10-27T06:45:39.990Z,13.10
2022-10-27T06:48:10.065Z,13.10
2022-10-27T06:50:36.975Z,13.10
2022-10-27T06:53:03.934Z,13.10
2022-10-27T06:55:31.510Z,13.10
2022-10-27T06:57:58.342Z,13.20
2022-10-27T07:00:25.466Z,13.10
2022-10-27T07:02:52.325Z,13.20
2022-10-27T07:05:19.489Z,13.20
2022-10-27T07:07:50.856Z,13.20
2022-10-27T07:10:18.663Z,13.30
2022-10-27T07:12:56.696Z,13.30
2022-10-27T07:15:25.507Z,13.30
2022-10-27T07:17:58.773Z,13.30
2022-10-27T07:20:26.862Z,13.30
2022-10-27T07:22:53.433Z,13.40
2022-10-27T07:25:20.044Z,13.40
2022-10-27T07:27:54.444Z,13.40
2022-10-27T07:30:27.130Z,13.50
2022-10-27T07:32:54.060Z,13.70
2022-10-27T07:35:21.739Z,13.80
2022-10-27T07:37:49.338Z,13.90
2022-10-27T07:40:18.185Z,13.90
2022-10-27T07:42:54.282Z,14.10
2022-10-27T07:45:23.599Z,14.10
2022-10-27T07:47:52.395Z,14.20
2022-10-27T07:50:25.336Z,14.30
2022-10-27T07:52:55.139Z,14.50
2022-10-27T07:55:23.731Z,14.60
2022-10-27T07:58:04.038Z,14.80
2022-10-27T08:00:32.222Z,15.00
2022-10-27T08:03:02.979Z,15.20
2022-10-27T08:05:30.877Z,15.20
2022-10-27T08:07:59.071Z,15.40
2022-10-27T08:10:25.838Z,15.20
2022-10-27T08:12:52.941Z,15.30
2022-10-27T08:15:19.566Z,15.30
2022-10-27T08:17:54.520Z,15.20
2022-10-27T08:20:22.216Z,15.30
2022-10-27T08:22:59.360Z,15.50
2022-10-27T08:25:26.706Z,15.70
2022-10-27T08:27:54.265Z,16.10
2022-10-27T08:30:22.623Z,16.30
2022-10-27T08:32:49.884Z,16.30
2022-10-27T08:35:17.342Z,16.20
2022-10-27T08:37:43.939Z,16.10
2022-10-27T08:40:11.580Z,16.00
2022-10-27T08:43:04.034Z,16.00
2022-10-27T08:45:34.524Z,15.90
2022-10-27T08:48:01.850Z,15.90
2022-10-27T08:50:35.332Z,15.80
2022-10-27T08:53:08.336Z,15.90
2022-10-27T08:55:44.191Z,15.80
2022-10-27T08:58:20.946Z,15.90
2022-10-27T09:00:59.040Z,15.80
2022-10-27T09:03:52.005Z,16.10
2022-10-27T09:06:26.906Z,16.60
2022-10-27T09:09:07.422Z,17.10
2022-10-27T09:11:58.790Z,17.50
2022-10-27T09:14:59.234Z,17.70
2022-10-27T09:17:47.607Z,18.40
2022-10-27T09:20:25.786Z,18.80
2022-10-27T09:22:54.624Z,19.00
2022-10-27T09:25:22.927Z,19.20
2022-10-27T09:27:55.407Z,19.60
2022-10-27T09:30:22.551Z,19.50
2022-10-27T09:32:53.468Z,19.20
2022-10-27T09:35:26.088Z,19.10
2022-10-27T09:37:53.840Z,18.80
2022-10-27T09:40:22.378Z,18.50
2022-10-27T09:42:53.953Z,18.50
2022-10-27T09:45:26.340Z,18.40
2022-10-27T09:48:00.522Z,18.20
2022-10-27T09:50:36.786Z,18.20
2022-10-27T09:53:04.771Z,18.20
2022-10-27T09:55:57.555Z,18.30
2022-10-27T09:58:24.232Z,18.30
2022-10-27T10:01:01.408Z,18.40
2022-10-27T10:03:28.430Z,18.40
2022-10-27T10:06:04.509Z,18.50
2022-10-27T10:08:36.855Z,18.50
2022-10-27T10:11:05.074Z,18.50
2022-10-27T10:13:33.834Z,18.60
2022-10-27T10:16:12.896Z,18.50
2022-10-27T10:18:40.891Z,18.50
2022-10-27T10:21:12.718Z,18.60
2022-10-27T10:23:48.249Z,18.50
2022-10-27T10:26:18.986Z,18.40
2022-10-27T10:28:47.063Z,18.60
2022-10-27T10:31:23.887Z,18.60
2022-10-27T10:33:50.802Z,19.00
2022-10-27T10:36:19.674Z,19.10
2022-10-27T10:38:52.064Z,19.10
2022-10-27T10:41:22.005Z,19.50
2022-10-27T10:44:07.857Z,19.70
2022-10-27T10:46:35.965Z,20.10
2022-10-27T10:49:02.714Z,20.10
2022-10-27T10:51:34.962Z,20.40
2022-10-27T10:54:06.152Z,20.40
2022-10-27T10:56:37.931Z,20.20
2022-10-27T10:59:15.167Z,19.90
2022-10-27T11:02:02.187Z,19.60
2022-10-27T11:04:32.714Z,19.50
2022-10-27T11:07:05.229Z,19.40
2022-10-27T11:09:52.350Z,19.30
2022-10-27T11:12:33.895Z,19.20
2022-10-27T11:15:06.502Z,19.20
2022-10-27T11:17:36.093Z,19.10
2022-10-27T11:20:06.676Z,19.10
2022-10-27T11:22:35.556Z,19.10
2022-10-27T11:25:11.843Z,19.20
2022-10-27T11:28:04.192Z,19.20
2022-10-27T11:30:35.311Z,19.50
2022-10-27T11:33:07.545Z,19.40
2022-10-27T11:35:43.636Z,19.40
2022-10-27T11:38:36.578Z,19.40
2022-10-27T11:41:25.743Z,19.40
2022-10-27T11:44:10.069Z,19.50
2022-10-27T11:47:16.386Z,19.30
2022-10-27T11:49:57.629Z,19.20
2022-10-27T11:52:35.138Z,19.20
2022-10-27T11:55:05.321Z,19.10
2022-10-27T11:57:53.639Z,19.20
2022-10-27T12:00:29.218Z,19.10
2022-10-27T12:03:13.464Z,19.10
2022-10-27T12:05:59.547Z,19.00
2022-10-27T12:08:48.220Z,19.00
2022-10-27T12:11:43.544Z,19.00
2022-10-27T12:14:28.967Z,18.90
2022-10-27T12:17:09.891Z,19.00
2022-10-27T12:19:41.855Z,18.90
2022-10-27T12:22:14.290Z,18.90
2022-10-27T12:24:45.446Z,18.90
2022-10-27T12:27:20.655Z,19.00
2022-10-27T12:29:50.893Z,19.10
2022-10-27T12:32:39.726Z,19.20
2022-10-27T12:35:17.594Z,19.20
2022-10-27T12:38:27.204Z,19.20
2022-10-27T12:41:19.060Z,19.30
2022-10-27T12:44:07.598Z,19.30
2022-10-27T12:46:45.197Z,19.40
2022-10-27T12:49:17.834Z,19.50
2022-10-27T12:52:01.842Z,19.50
2022-10-27T12:54:31.858Z,19.60
2022-10-27T12:57:17.322Z,19.50
2022-10-27T12:59:52.843Z,19.60
2022-10-27T13:02:23.790Z,19.50
2022-10-27T13:04:56.662Z,19.60
2022-10-27T13:07:44.062Z,19.50
2022-10-27T13:10:40.312Z,19.60
2022-10-27T13:13:52.257Z,19.60
2022-10-27T13:16:36.803Z,19.70
2022-10-27T13:19:16.873Z,19.80
2022-10-27T13:21:53.563Z,19.80
2022-10-27T13:24:32.146Z,19.90
2022-10-27T13:27:14.060Z,20.00
2022-10-27T13:30:13.110Z,20.00
2022-10-27T13:32:51.201Z,19.90
2022-10-27T13:35:18.484Z,19.90
2022-10-27T13:37:59.339Z,19.90
2022-10-27T13:40:33.451Z,19.70
2022-10-27T13:43:21.594Z,19.80
2022-10-27T13:45:54.116Z,19.90
2022-10-27T13:48:20.649Z,19.90
2022-10-27T13:50:57.743Z,19.90
2022-10-27T13:53:26.075Z,20.10
2022-10-27T13:56:01.191Z,20.00
2022-10-27T13:59:05.777Z,20.00
2022-10-27T14:01:39.849Z,20.00
2022-10-27T14:04:18.462Z,19.90
2022-10-27T14:06:47.238Z,19.80
2022-10-27T14:09:34.910Z,19.70
2022-10-27T14:12:06.822Z,19.60
2022-10-27T14:14:37.905Z,19.60
2022-10-27T14:17:17.403Z,19.50
2022-10-27T14:19:53.030Z,19.40
2022-10-27T14:22:27.370Z,19.30
2022-10-27T14:25:00.774Z,19.30
2022-10-27T14:27:27.391Z,19.30
2022-10-27T14:30:05.039Z,19.20
2022-10-27T14:32:31.666Z,19.10
2022-10-27T14:35:40.867Z,19.10
2022-10-27T14:38:18.313Z,19.10
2022-10-27T14:40:46.798Z,19.10
2022-10-27T14:43:24.821Z,19.00
2022-10-27T14:45:58.808Z,19.00
2022-10-27T14:48:31.225Z,18.90
2022-10-27T14:51:00.629Z,18.90
2022-10-27T14:53:34.390Z,18.90
2022-10-27T14:56:23.775Z,18.90
2022-10-27T14:58:58.721Z,18.80
2022-10-27T15:01:39.871Z,18.80
2022-10-27T15:04:24.249Z,18.80
2022-10-27T15:06:57.319Z,18.80
2022-10-27T15:09:32.046Z,18.70
2022-10-27T15:12:04.578Z,18.80
2022-10-27T15:14:33.432Z,18.70
2022-10-27T15:17:01.304Z,18.70
2022-10-27T15:19:27.945Z,18.70
2022-10-27T15:21:55.020Z,18.70
2022-10-27T15:24:26.166Z,18.70
2022-10-27T15:26:54.361Z,18.70
2022-10-27T15:29:22.327Z,18.70
2022-10-27T15:31:58.653Z,18.70
2022-10-27T15:34:37.867Z,18.70
2022-10-27T15:37:23.404Z,18.70
2022-10-27T15:39:50.586Z,18.70
2022-10-27T15:42:28.745Z,18.60
2022-10-27T15:45:34.926Z,18.60
2022-10-27T15:48:01.784Z,18.60
2022-10-27T15:50:39.676Z,18.60
2022-10-27T15:53:20.884Z,18.60
2022-10-27T15:56:03.150Z,18.50
2022-10-27T15:58:38.075Z,18.50
2022-10-27T16:01:09.423Z,18.50
2022-10-27T16:03:56.847Z,18.50
2022-10-27T16:06:27.085Z,18.40
2022-10-27T16:08:55.786Z,18.30
2022-10-27T16:11:24.010Z,18.40
2022-10-27T16:13:59.495Z,18.20
2022-10-27T16:16:26.563Z,18.40
2022-10-27T16:18:53.298Z,18.30
2022-10-27T16:21:24.976Z,18.30
2022-10-27T16:23:54.324Z,18.20
2022-10-27T16:26:27.409Z,18.20
2022-10-27T16:29:00.360Z,18.10
2022-10-27T16:31:28.180Z,18.10
2022-10-27T16:33:54.889Z,18.00
2022-10-27T16:36:21.537Z,18.00
2022-10-27T16:38:48.133Z,18.20
2022-10-27T16:41:25.472Z,18.10
2022-10-27T16:43:52.105Z,18.00
2022-10-27T16:46:18.714Z,17.90
2022-10-27T16:48:45.294Z,18.00
2022-10-27T16:51:17.225Z,18.00
2022-10-27T16:53:43.898Z,18.00
2022-10-27T16:56:12.490Z,18.00
2022-10-27T16:58:45.365Z,17.90
2022-10-27T17:01:15.756Z,18.00
2022-10-27T17:03:42.859Z,17.90
2022-10-27T17:06:10.268Z,17.70
2022-10-27T17:08:37.161Z,17.80
2022-10-27T17:11:11.460Z,17.70
2022-10-27T17:13:38.642Z,17.70
2022-10-27T17:16:10.337Z,17.60
2022-10-27T17:18:37.117Z,17.60
2022-10-27T17:21:04.482Z,17.60
2022-10-27T17:23:31.611Z,17.60
2022-10-27T17:26:06.383Z,17.60
2022-10-27T17:28:33.662Z,17.60
2022-10-27T17:31:11.777Z,17.50
2022-10-27T17:33:38.722Z,17.50
2022-10-27T17:36:09.904Z,17.50
2022-10-27T17:38:37.303Z,17.40
2022-10-27T17:41:05.686Z,17.40
2022-10-27T17:43:36.195Z,17.40
2022-10-27T17:46:14.510Z,17.40
2022-10-27T17:48:53.984Z,17.40
2022-10-27T17:51:23.242Z,17.40
2022-10-27T17:53:50.947Z,17.40
2022-10-27T17:56:19.877Z,17.40
2022-10-27T17:58:47.466Z,17.40
2022-10-27T18:01:16.853Z,17.30
2022-10-27T18:03:45.287Z,17.30
2022-10-27T18:06:14.681Z,17.30
2022-10-27T18:08:41.380Z,17.30
2022-10-27T18:11:10.425Z,17.20
2022-10-27T18:13:39.277Z,17.30
2022-10-27T18:16:23.969Z,17.20
2022-10-27T18:18:51.400Z,17.10
2022-10-27T18:21:18.758Z,17.10
2022-10-27T18:23:49.944Z,17.10
2022-10-27T18:26:17.297Z,17.00
2022-10-27T18:28:48.128Z,17.00
2022-10-27T18:31:16.866Z,16.90
2022-10-27T18:33:46.608Z,16.90
2022-10-27T18:36:17.234Z,16.90
2022-10-27T18:38:44.485Z,16.90
2022-10-27T18:41:16.535Z,16.80
2022-10-27T18:43:50.530Z,16.70
2022-10-27T18:46:18.415Z,16.70
2022-10-27T18:48:59.469Z,16.70
2022-10-27T18:51:30.726Z,16.80
2022-10-27T18:53:59.561Z,16.90
2022-10-27T18:56:26.301Z,16.90
2022-10-27T18:58:57.874Z,16.80
2022-10-27T19:01:25.566Z,16.80
2022-10-27T19:03:54.062Z,16.80
2022-10-27T19:06:21.252Z,16.80
2022-10-27T19:08:47.905Z,16.90
2022-10-27T19:11:16.645Z,16.80
2022-10-27T19:13:43.346Z,16.80
2022-10-27T19:16:15.141Z,16.80
2022-10-27T19:18:42.136Z,16.90
2022-10-27T19:21:13.327Z,16.80
2022-10-27T19:23:39.924Z,16.80
2022-10-27T19:26:11.763Z,16.80
2022-10-27T19:28:40.551Z,16.80
2022-10-27T19:31:10.198Z,16.90
2022-10-27T19:33:39.886Z,16.90
2022-10-27T19:36:31.500Z,16.80
2022-10-27T19:39:00.286Z,16.80
2022-10-27T19:41:29.262Z,16.70
2022-10-27T19:43:56.706Z,16.80
2022-10-27T19:46:25.489Z,16.80
2022-10-27T19:48:56.859Z,16.70
2022-10-27T19:51:25.707Z,16.80
2022-10-27T19:53:56.228Z,16.80
2022-10-27T19:56:24.024Z,16.70
2022-10-27T19:58:57.849Z,16.70
2022-10-27T20:01:36.421Z,16.70
2022-10-27T20:04:07.911Z,16.70
2022-10-27T20:06:34.962Z,16.60
2022-10-27T20:09:01.650Z,16.60
2022-10-27T20:11:30.663Z,16.60
2022-10-27T20:13:58.179Z,16.60
2022-10-27T20:16:27.086Z,16.60
2022-10-27T20:18:53.964Z,16.60
2022-10-27T20:21:20.659Z,16.60
2022-10-27T20:23:47.401Z,16.60
2022-10-27T20:26:30.749Z,16.40
2022-10-27T20:29:00.332Z,16.50
2022-10-27T20:31:27.706Z,16.50
2022-10-27T20:33:54.842Z,16.40
2022-10-27T20:36:22.323Z,16.40
2022-10-27T20:38:49.429Z,16.40
2022-10-27T20:41:18.337Z,16.40
2022-10-27T20:43:45.451Z,16.40
2022-10-27T20:46:12.582Z,16.60
2022-10-27T20:48:40.684Z,16.50
2022-10-27T20:51:12.396Z,16.50
2022-10-27T20:53:40.049Z,16.40
2022-10-27T20:56:07.971Z,16.40
2022-10-27T20:58:34.593Z,16.30
2022-10-27T21:01:26.106Z,16.40
2022-10-27T21:03:54.388Z,16.40
2022-10-27T21:06:21.096Z,16.30
2022-10-27T21:08:47.823Z,16.30
2022-10-27T21:11:14.433Z,16.30
2022-10-27T21:13:41.026Z,16.30
2022-10-27T21:16:07.906Z,16.30
2022-10-27T21:18:34.565Z,16.30
2022-10-27T21:21:10.623Z,16.30
2022-10-27T21:23:37.210Z,16.30
2022-10-27T21:26:04.183Z,16.40
2022-10-27T21:28:30.800Z,16.40
2022-10-27T21:30:57.442Z,16.40
2022-10-27T21:33:27.306Z,16.40
2022-10-27T21:35:53.919Z,16.40
2022-10-27T21:38:20.508Z,16.50
2022-10-27T21:40:47.122Z,16.50
2022-10-27T21:43:13.811Z,16.40
2022-10-27T21:45:40.434Z,16.40
2022-10-27T21:48:07.151Z,16.50
2022-10-27T21:50:33.842Z,16.50
2022-10-27T21:53:00.410Z,16.50
2022-10-27T21:55:27.066Z,16.50
2022-10-27T21:57:54.067Z,16.50
2022-10-27T22:00:20.953Z,16.50
2022-10-27T22:02:47.561Z,16.40
2022-10-27T22:05:14.235Z,16.40
2022-10-27T22:07:40.824Z,16.50
2022-10-27T22:10:08.172Z,16.40
2022-10-27T22:12:34.758Z,16.50
2022-10-27T22:15:01.443Z,16.40
2022-10-27T22:17:29.462Z,16.40
2022-10-27T22:19:56.076Z,16.40
2022-10-27T22:22:22.696Z,16.40
2022-10-27T22:24:49.316Z,16.40
2022-10-27T22:27:18.342Z,16.40
2022-10-27T22:29:45.720Z,16.40
2022-10-27T22:32:12.499Z,16.40
2022-10-27T22:37:05.611Z,16.40
2022-10-27T22:39:32.291Z,16.40
2022-10-27T22:41:58.918Z,16.40
2022-10-27T22:44:25.530Z,16.40
2022-10-27T22:46:52.093Z,16.40
2022-10-27T22:49:18.684Z,16.30
2022-10-27T22:51:48.443Z,16.30
2022-10-27T22:54:15.398Z,16.30
2022-10-27T22:56:42.084Z,16.30
2022-10-27T22:59:10.045Z,16.40
2022-10-27T23:01:38.547Z,16.50
2022-10-27T23:04:08.038Z,16.50
2022-10-27T23:06:37.273Z,16.40
2022-10-27T23:09:06.664Z,16.40
2022-10-27T23:11:35.990Z,16.40
2022-10-27T23:14:04.046Z,16.50
2022-10-27T23:16:31.705Z,16.50
2022-10-27T23:18:59.550Z,16.50
2022-10-27T23:21:27.250Z,16.50
2022-10-27T23:23:55.349Z,16.40
2022-10-27T23:26:25.032Z,16.40
2022-10-27T23:28:53.664Z,16.30
2022-10-27T23:31:20.654Z,16.30
2022-10-27T23:33:52.130Z,16.30
2022-10-27T23:36:18.759Z,16.20
2022-10-27T23:38:45.437Z,16.20
2022-10-27T23:41:12.520Z,16.30
2022-10-27T23:43:39.213Z,16.20
2022-10-27T23:46:08.048Z,16.20
2022-10-27T23:48:35.754Z,16.10
2022-10-27T23:51:03.229Z,16.00
2022-10-27T23:53:30.958Z,15.90
2022-10-27T23:56:02.283Z,15.80
2022-10-27T23:58:30.977Z,15.80
